sensor_id;sensor_type;location;lat;lon;timestamp;temperature;humidity
75489;HTU21D;64069;46.396;48.102;2022-12-18T00:00:59;-4.46;82.76
75489;HTU21D;64069;46.396;48.102;2022-12-18T00:03:26;-4.46;82.78
75489;HTU21D;64069;46.396;48.102;2022-12-18T00:05:52;-4.44;82.80
75489;HTU21D;64069;46.396;48.102;2022-12-18T00:08:18;-4.42;82.85
75489;HTU21D;64069;46.396;48.102;2022-12-18T00:10:44;-4.42;82.90
75489;HTU21D;64069;46.396;48.102;2022-12-18T00:13:11;-4.41;82.92
75489;HTU21D;64069;46.396;48.102;2022-12-18T00:15:39;-4.41;83.12
75489;HTU21D;64069;46.396;48.102;2022-12-18T00:18:05;-4.40;83.28
75489;HTU21D;64069;46.396;48.102;2022-12-18T00:20:38;-4.40;83.41
75489;HTU21D;64069;46.396;48.102;2022-12-18T00:23:05;-4.41;83.36
75489;HTU21D;64069;46.396;48.102;2022-12-18T00:25:35;-4.44;83.34
75489;HTU21D;64069;46.396;48.102;2022-12-18T00:28:02;-4.43;83.46
75489;HTU21D;64069;46.396;48.102;2022-12-18T00:30:28;-4.45;83.45
75489;HTU21D;64069;46.396;48.102;2022-12-18T00:32:54;-4.46;83.50
75489;HTU21D;64069;46.396;48.102;2022-12-18T00:35:21;-4.50;83.54
75489;HTU21D;64069;46.396;48.102;2022-12-18T00:37:47;-4.52;83.59
75489;HTU21D;64069;46.396;48.102;2022-12-18T00:40:13;-4.55;83.65
75489;HTU21D;64069;46.396;48.102;2022-12-18T00:42:39;-4.55;83.71
75489;HTU21D;64069;46.396;48.102;2022-12-18T00:45:31;-4.55;83.68
75489;HTU21D;64069;46.396;48.102;2022-12-18T00:47:57;-4.55;83.70
75489;HTU21D;64069;46.396;48.102;2022-12-18T00:50:24;-4.57;83.71
75489;HTU21D;64069;46.396;48.102;2022-12-18T00:52:51;-4.56;83.74
75489;HTU21D;64069;46.396;48.102;2022-12-18T00:55:18;-4.54;83.76
75489;HTU21D;64069;46.396;48.102;2022-12-18T00:57:46;-4.55;83.74
75489;HTU21D;64069;46.396;48.102;2022-12-18T01:00:14;-4.54;83.75
75489;HTU21D;64069;46.396;48.102;2022-12-18T01:02:41;-4.56;83.74
75489;HTU21D;64069;46.396;48.102;2022-12-18T01:05:09;-4.56;83.80
75489;HTU21D;64069;46.396;48.102;2022-12-18T01:07:35;-4.55;83.82
75489;HTU21D;64069;46.396;48.102;2022-12-18T01:10:03;-4.56;83.85
75489;HTU21D;64069;46.396;48.102;2022-12-18T01:12:30;-4.58;83.87
75489;HTU21D;64069;46.396;48.102;2022-12-18T01:14:56;-4.58;83.89
75489;HTU21D;64069;46.396;48.102;2022-12-18T01:17:21;-4.59;83.91
75489;HTU21D;64069;46.396;48.102;2022-12-18T01:19:49;-4.61;83.95
75489;HTU21D;64069;46.396;48.102;2022-12-18T01:22:15;-4.60;83.94
75489;HTU21D;64069;46.396;48.102;2022-12-18T01:24:41;-4.61;84.03
75489;HTU21D;64069;46.396;48.102;2022-12-18T01:27:07;-4.64;84.07
75489;HTU21D;64069;46.396;48.102;2022-12-18T01:29:33;-4.66;84.06
75489;HTU21D;64069;46.396;48.102;2022-12-18T01:31:59;-4.67;84.08
75489;HTU21D;64069;46.396;48.102;2022-12-18T01:34:25;-4.67;84.11
75489;HTU21D;64069;46.396;48.102;2022-12-18T01:36:51;-4.67;84.13
75489;HTU21D;64069;46.396;48.102;2022-12-18T01:39:18;-4.68;84.17
75489;HTU21D;64069;46.396;48.102;2022-12-18T01:41:45;-4.70;84.21
75489;HTU21D;64069;46.396;48.102;2022-12-18T01:47:45;-4.78;84.27
75489;HTU21D;64069;46.396;48.102;2022-12-18T01:50:17;-4.81;84.27
75489;HTU21D;64069;46.396;48.102;2022-12-18T01:52:47;-4.84;84.36
75489;HTU21D;64069;46.396;48.102;2022-12-18T01:55:17;-4.88;84.43
75489;HTU21D;64069;46.396;48.102;2022-12-18T01:57:44;-4.91;84.46
75489;HTU21D;64069;46.396;48.102;2022-12-18T02:00:13;-4.94;84.51
75489;HTU21D;64069;46.396;48.102;2022-12-18T02:02:44;-4.93;84.47
75489;HTU21D;64069;46.396;48.102;2022-12-18T02:05:16;-4.93;84.42
75489;HTU21D;64069;46.396;48.102;2022-12-18T02:18:38;-4.91;84.32
75489;HTU21D;64069;46.396;48.102;2022-12-18T02:21:19;-4.90;84.31
75489;HTU21D;64069;46.396;48.102;2022-12-18T02:23:51;-4.90;84.31
75489;HTU21D;64069;46.396;48.102;2022-12-18T02:26:27;-4.90;84.30
75489;HTU21D;64069;46.396;48.102;2022-12-18T02:29:18;-4.93;84.29
75489;HTU21D;64069;46.396;48.102;2022-12-18T02:31:51;-4.95;84.28
75489;HTU21D;64069;46.396;48.102;2022-12-18T02:34:19;-4.95;84.27
75489;HTU21D;64069;46.396;48.102;2022-12-18T02:36:48;-4.96;84.32
75489;HTU21D;64069;46.396;48.102;2022-12-18T02:39:16;-4.97;84.41
75489;HTU21D;64069;46.396;48.102;2022-12-18T02:41:57;-4.97;84.40
75489;HTU21D;64069;46.396;48.102;2022-12-18T02:44:24;-4.98;84.36
75489;HTU21D;64069;46.396;48.102;2022-12-18T02:46:52;-4.99;84.35
75489;HTU21D;64069;46.396;48.102;2022-12-18T02:49:34;-5.02;84.36
75489;HTU21D;64069;46.396;48.102;2022-12-18T02:52:45;-5.02;84.38
75489;HTU21D;64069;46.396;48.102;2022-12-18T02:57:57;-5.08;84.32
75489;HTU21D;64069;46.396;48.102;2022-12-18T03:03:57;-5.07;84.35
75489;HTU21D;64069;46.396;48.102;2022-12-18T03:06:23;-5.05;84.27
75489;HTU21D;64069;46.396;48.102;2022-12-18T03:08:56;-5.05;84.24
75489;HTU21D;64069;46.396;48.102;2022-12-18T03:11:25;-5.05;84.27
75489;HTU21D;64069;46.396;48.102;2022-12-18T03:14:15;-5.04;84.23
75489;HTU21D;64069;46.396;48.102;2022-12-18T03:16:43;-5.03;84.22
75489;HTU21D;64069;46.396;48.102;2022-12-18T03:19:18;-5.02;84.25
75489;HTU21D;64069;46.396;48.102;2022-12-18T03:21:54;-4.99;84.27
75489;HTU21D;64069;46.396;48.102;2022-12-18T03:24:23;-4.96;84.23
75489;HTU21D;64069;46.396;48.102;2022-12-18T03:26:52;-4.95;84.23
75489;HTU21D;64069;46.396;48.102;2022-12-18T03:29:35;-4.94;84.25
75489;HTU21D;64069;46.396;48.102;2022-12-18T03:32:07;-4.93;84.21
75489;HTU21D;64069;46.396;48.102;2022-12-18T03:34:38;-4.89;84.19
75489;HTU21D;64069;46.396;48.102;2022-12-18T03:37:07;-4.88;84.16
75489;HTU21D;64069;46.396;48.102;2022-12-18T03:39:35;-4.88;84.18
75489;HTU21D;64069;46.396;48.102;2022-12-18T03:42:22;-4.88;84.21
75489;HTU21D;64069;46.396;48.102;2022-12-18T03:47:46;-4.94;84.26
75489;HTU21D;64069;46.396;48.102;2022-12-18T03:50:23;-4.93;84.30
75489;HTU21D;64069;46.396;48.102;2022-12-18T03:52:58;-4.89;84.25
75489;HTU21D;64069;46.396;48.102;2022-12-18T03:55:28;-4.88;84.23
75489;HTU21D;64069;46.396;48.102;2022-12-18T03:58:01;-4.88;84.25
75489;HTU21D;64069;46.396;48.102;2022-12-18T04:00:39;-4.87;84.26
75489;HTU21D;64069;46.396;48.102;2022-12-18T04:03:08;-4.87;84.26
75489;HTU21D;64069;46.396;48.102;2022-12-18T04:05:43;-4.86;84.29
75489;HTU21D;64069;46.396;48.102;2022-12-18T04:08:10;-4.84;84.27
75489;HTU21D;64069;46.396;48.102;2022-12-18T04:10:40;-4.83;84.24
75489;HTU21D;64069;46.396;48.102;2022-12-18T04:13:06;-4.82;84.20
75489;HTU21D;64069;46.396;48.102;2022-12-18T04:15:35;-4.80;84.22
75489;HTU21D;64069;46.396;48.102;2022-12-18T04:18:04;-4.78;84.20
75489;HTU21D;64069;46.396;48.102;2022-12-18T04:20:37;-4.76;84.16
75489;HTU21D;64069;46.396;48.102;2022-12-18T04:23:03;-4.79;84.19
75489;HTU21D;64069;46.396;48.102;2022-12-18T04:25:29;-4.81;84.22
75489;HTU21D;64069;46.396;48.102;2022-12-18T04:28:05;-4.80;84.27
75489;HTU21D;64069;46.396;48.102;2022-12-18T04:30:32;-4.78;84.30
75489;HTU21D;64069;46.396;48.102;2022-12-18T04:32:58;-4.79;84.32
75489;HTU21D;64069;46.396;48.102;2022-12-18T04:35:24;-4.79;84.32
75489;HTU21D;64069;46.396;48.102;2022-12-18T04:37:51;-4.76;84.30
75489;HTU21D;64069;46.396;48.102;2022-12-18T04:40:17;-4.73;84.26
75489;HTU21D;64069;46.396;48.102;2022-12-18T04:42:46;-4.68;84.25
75489;HTU21D;64069;46.396;48.102;2022-12-18T04:45:12;-4.63;84.20
75489;HTU21D;64069;46.396;48.102;2022-12-18T04:47:38;-4.56;84.12
75489;HTU21D;64069;46.396;48.102;2022-12-18T04:50:04;-4.49;84.07
75489;HTU21D;64069;46.396;48.102;2022-12-18T04:52:33;-4.40;84.00
75489;HTU21D;64069;46.396;48.102;2022-12-18T04:54:59;-4.32;83.94
75489;HTU21D;64069;46.396;48.102;2022-12-18T04:57:25;-4.23;83.90
75489;HTU21D;64069;46.396;48.102;2022-12-18T04:59:51;-4.14;83.84
75489;HTU21D;64069;46.396;48.102;2022-12-18T05:02:17;-4.04;83.80
75489;HTU21D;64069;46.396;48.102;2022-12-18T05:04:43;-3.92;83.72
75489;HTU21D;64069;46.396;48.102;2022-12-18T05:07:09;-3.80;83.64
75489;HTU21D;64069;46.396;48.102;2022-12-18T05:09:35;-3.70;83.55
75489;HTU21D;64069;46.396;48.102;2022-12-18T05:12:01;-3.57;83.50
75489;HTU21D;64069;46.396;48.102;2022-12-18T05:14:27;-3.47;83.44
75489;HTU21D;64069;46.396;48.102;2022-12-18T05:16:54;-3.36;83.39
75489;HTU21D;64069;46.396;48.102;2022-12-18T05:19:21;-3.24;83.36
75489;HTU21D;64069;46.396;48.102;2022-12-18T05:21:46;-3.16;83.36
75489;HTU21D;64069;46.396;48.102;2022-12-18T05:24:12;-3.04;83.36
75489;HTU21D;64069;46.396;48.102;2022-12-18T05:26:38;-2.91;83.36
75489;HTU21D;64069;46.396;48.102;2022-12-18T05:29:04;-2.76;83.26
75489;HTU21D;64069;46.396;48.102;2022-12-18T05:31:30;-2.66;83.22
75489;HTU21D;64069;46.396;48.102;2022-12-18T05:33:57;-2.53;83.20
75489;HTU21D;64069;46.396;48.102;2022-12-18T05:36:23;-2.41;83.14
75489;HTU21D;64069;46.396;48.102;2022-12-18T05:38:49;-2.27;83.06
75489;HTU21D;64069;46.396;48.102;2022-12-18T05:41:16;-2.17;83.00
75489;HTU21D;64069;46.396;48.102;2022-12-18T05:43:41;-2.03;82.97
75489;HTU21D;64069;46.396;48.102;2022-12-18T05:46:16;-1.87;82.91
75489;HTU21D;64069;46.396;48.102;2022-12-18T05:48:45;-1.77;82.72
75489;HTU21D;64069;46.396;48.102;2022-12-18T05:51:14;-1.73;82.79
75489;HTU21D;64069;46.396;48.102;2022-12-18T05:53:42;-1.62;82.79
75489;HTU21D;64069;46.396;48.102;2022-12-18T05:56:10;-1.47;82.71
75489;HTU21D;64069;46.396;48.102;2022-12-18T05:58:37;-1.32;82.54
75489;HTU21D;64069;46.396;48.102;2022-12-18T06:03:36;-1.14;82.32
75489;HTU21D;64069;46.396;48.102;2022-12-18T06:06:02;-1.01;82.23
75489;HTU21D;64069;46.396;48.102;2022-12-18T06:08:28;-0.90;82.12
75489;HTU21D;64069;46.396;48.102;2022-12-18T06:10:58;-0.80;82.07
75489;HTU21D;64069;46.396;48.102;2022-12-18T06:13:24;-0.69;81.98
75489;HTU21D;64069;46.396;48.102;2022-12-18T06:15:50;-0.57;81.91
75489;HTU21D;64069;46.396;48.102;2022-12-18T06:18:16;-0.52;81.94
75489;HTU21D;64069;46.396;48.102;2022-12-18T06:20:41;-0.41;82.01
75489;HTU21D;64069;46.396;48.102;2022-12-18T06:23:09;-0.25;82.01
75489;HTU21D;64069;46.396;48.102;2022-12-18T06:25:38;-0.14;81.94
75489;HTU21D;64069;46.396;48.102;2022-12-18T06:28:04;-0.02;81.94
75489;HTU21D;64069;46.396;48.102;2022-12-18T06:30:33;0.07;82.01
75489;HTU21D;64069;46.396;48.102;2022-12-18T06:32:59;0.10;82.13
75489;HTU21D;64069;46.396;48.102;2022-12-18T06:35:25;0.13;82.41
75489;HTU21D;64069;46.396;48.102;2022-12-18T06:37:50;0.20;82.69
75489;HTU21D;64069;46.396;48.102;2022-12-18T06:40:16;0.36;82.81
75489;HTU21D;64069;46.396;48.102;2022-12-18T06:42:42;0.55;82.87
75489;HTU21D;64069;46.396;48.102;2022-12-18T06:45:09;0.75;82.85
75489;HTU21D;64069;46.396;48.102;2022-12-18T06:47:36;0.94;82.82
75489;HTU21D;64069;46.396;48.102;2022-12-18T06:50:02;1.17;82.80
75489;HTU21D;64069;46.396;48.102;2022-12-18T06:52:31;1.31;82.80
75489;HTU21D;64069;46.396;48.102;2022-12-18T06:54:57;1.50;82.87
75489;HTU21D;64069;46.396;48.102;2022-12-18T06:57:27;1.76;82.81
75489;HTU21D;64069;46.396;48.102;2022-12-18T06:59:53;1.93;82.70
75489;HTU21D;64069;46.396;48.102;2022-12-18T07:02:20;2.09;82.78
75489;HTU21D;64069;46.396;48.102;2022-12-18T07:04:45;2.16;82.87
75489;HTU21D;64069;46.396;48.102;2022-12-18T07:07:11;2.27;83.08
75489;HTU21D;64069;46.396;48.102;2022-12-18T07:09:37;2.43;83.15
75489;HTU21D;64069;46.396;48.102;2022-12-18T07:12:03;2.57;83.16
75489;HTU21D;64069;46.396;48.102;2022-12-18T07:14:34;2.68;83.19
75489;HTU21D;64069;46.396;48.102;2022-12-18T07:17:00;2.78;83.29
75489;HTU21D;64069;46.396;48.102;2022-12-18T07:19:26;2.99;83.26
75489;HTU21D;64069;46.396;48.102;2022-12-18T07:21:52;3.17;83.15
75489;HTU21D;64069;46.396;48.102;2022-12-18T07:24:18;3.34;83.07
75489;HTU21D;64069;46.396;48.102;2022-12-18T07:26:47;3.54;83.00
75489;HTU21D;64069;46.396;48.102;2022-12-18T07:29:17;3.65;82.97
75489;HTU21D;64069;46.396;48.102;2022-12-18T07:31:44;3.83;82.94
75489;HTU21D;64069;46.396;48.102;2022-12-18T07:34:13;3.99;82.91
75489;HTU21D;64069;46.396;48.102;2022-12-18T07:36:40;4.17;82.81
75489;HTU21D;64069;46.396;48.102;2022-12-18T07:39:07;4.31;82.72
75489;HTU21D;64069;46.396;48.102;2022-12-18T07:41:33;4.38;82.70
75489;HTU21D;64069;46.396;48.102;2022-12-18T07:44:10;4.52;82.71
75489;HTU21D;64069;46.396;48.102;2022-12-18T07:46:37;4.63;82.64
75489;HTU21D;64069;46.396;48.102;2022-12-18T07:49:03;4.76;82.59
75489;HTU21D;64069;46.396;48.102;2022-12-18T07:51:29;4.84;82.56
75489;HTU21D;64069;46.396;48.102;2022-12-18T07:53:57;4.93;82.51
75489;HTU21D;64069;46.396;48.102;2022-12-18T07:56:23;5.01;82.52
75489;HTU21D;64069;46.396;48.102;2022-12-18T07:58:53;5.11;82.46
75489;HTU21D;64069;46.396;48.102;2022-12-18T08:01:19;5.24;82.39
75489;HTU21D;64069;46.396;48.102;2022-12-18T08:03:45;5.34;82.28
75489;HTU21D;64069;46.396;48.102;2022-12-18T08:06:11;5.45;82.20
75489;HTU21D;64069;46.396;48.102;2022-12-18T08:08:37;5.54;82.12
75489;HTU21D;64069;46.396;48.102;2022-12-18T08:11:03;5.72;82.01
75489;HTU21D;64069;46.396;48.102;2022-12-18T08:13:29;5.90;81.78
75489;HTU21D;64069;46.396;48.102;2022-12-18T08:16:00;6.01;81.57
75489;HTU21D;64069;46.396;48.102;2022-12-18T08:18:26;6.12;81.49
75489;HTU21D;64069;46.396;48.102;2022-12-18T08:20:53;6.22;81.29
75489;HTU21D;64069;46.396;48.102;2022-12-18T08:23:19;6.31;81.20
75489;HTU21D;64069;46.396;48.102;2022-12-18T08:25:45;6.42;81.10
75489;HTU21D;64069;46.396;48.102;2022-12-18T08:28:16;6.52;80.95
75489;HTU21D;64069;46.396;48.102;2022-12-18T08:30:42;6.60;80.84
75489;HTU21D;64069;46.396;48.102;2022-12-18T08:33:08;6.73;80.71
75489;HTU21D;64069;46.396;48.102;2022-12-18T08:35:35;6.81;80.46
75489;HTU21D;64069;46.396;48.102;2022-12-18T08:38:02;6.89;80.39
75489;HTU21D;64069;46.396;48.102;2022-12-18T08:40:29;6.97;80.28
75489;HTU21D;64069;46.396;48.102;2022-12-18T08:42:55;7.05;80.22
75489;HTU21D;64069;46.396;48.102;2022-12-18T08:45:40;7.15;80.12
75489;HTU21D;64069;46.396;48.102;2022-12-18T08:48:06;7.24;80.01
75489;HTU21D;64069;46.396;48.102;2022-12-18T08:50:32;7.35;79.95
75489;HTU21D;64069;46.396;48.102;2022-12-18T08:52:58;7.44;79.75
75489;HTU21D;64069;46.396;48.102;2022-12-18T08:55:24;7.53;79.66
75489;HTU21D;64069;46.396;48.102;2022-12-18T08:57:50;7.68;79.56
75489;HTU21D;64069;46.396;48.102;2022-12-18T09:00:16;7.81;79.38
75489;HTU21D;64069;46.396;48.102;2022-12-18T09:02:42;7.91;79.23
75489;HTU21D;64069;46.396;48.102;2022-12-18T09:05:08;8.05;79.11
75489;HTU21D;64069;46.396;48.102;2022-12-18T09:07:34;8.18;78.98
75489;HTU21D;64069;46.396;48.102;2022-12-18T09:10:00;8.31;78.78
75489;HTU21D;64069;46.396;48.102;2022-12-18T09:12:26;8.42;78.54
75489;HTU21D;64069;46.396;48.102;2022-12-18T09:14:56;8.50;78.47
75489;HTU21D;64069;46.396;48.102;2022-12-18T09:17:22;8.60;78.34
75489;HTU21D;64069;46.396;48.102;2022-12-18T09:19:48;8.65;78.15
75489;HTU21D;64069;46.396;48.102;2022-12-18T09:22:17;8.71;78.12
75489;HTU21D;64069;46.396;48.102;2022-12-18T09:24:43;8.76;78.00
75489;HTU21D;64069;46.396;48.102;2022-12-18T09:27:12;8.79;77.93
75489;HTU21D;64069;46.396;48.102;2022-12-18T09:29:38;8.85;77.97
75489;HTU21D;64069;46.396;48.102;2022-12-18T09:32:04;8.94;77.90
75489;HTU21D;64069;46.396;48.102;2022-12-18T09:34:30;9.02;77.75
75489;HTU21D;64069;46.396;48.102;2022-12-18T09:36:56;9.08;77.63
75489;HTU21D;64069;46.396;48.102;2022-12-18T09:39:22;9.09;77.48
75489;HTU21D;64069;46.396;48.102;2022-12-18T09:41:55;9.12;77.45
75489;HTU21D;64069;46.396;48.102;2022-12-18T09:47:16;9.23;77.35
75489;HTU21D;64069;46.396;48.102;2022-12-18T09:49:45;9.32;77.21
75489;HTU21D;64069;46.396;48.102;2022-12-18T09:57:40;9.37;77.00
75489;HTU21D;64069;46.396;48.102;2022-12-18T10:00:17;9.41;76.91
75489;HTU21D;64069;46.396;48.102;2022-12-18T10:02:47;9.47;76.88
75489;HTU21D;64069;46.396;48.102;2022-12-18T10:05:16;9.49;76.85
75489;HTU21D;64069;46.396;48.102;2022-12-18T10:10:51;9.59;76.77
75489;HTU21D;64069;46.396;48.102;2022-12-18T10:13:38;9.62;76.66
75489;HTU21D;64069;46.396;48.102;2022-12-18T10:16:35;9.65;76.69
75489;HTU21D;64069;46.396;48.102;2022-12-18T10:19:33;9.67;76.60
75489;HTU21D;64069;46.396;48.102;2022-12-18T10:28:15;9.68;76.54
75489;HTU21D;64069;46.396;48.102;2022-12-18T10:30:43;9.68;76.36
75489;HTU21D;64069;46.396;48.102;2022-12-18T10:33:16;9.70;76.31
75489;HTU21D;64069;46.396;48.102;2022-12-18T10:35:43;9.72;76.30
75489;HTU21D;64069;46.396;48.102;2022-12-18T10:41:00;9.75;76.28
75489;HTU21D;64069;46.396;48.102;2022-12-18T10:43:28;9.76;76.22
75489;HTU21D;64069;46.396;48.102;2022-12-18T10:51:36;9.86;75.86
75489;HTU21D;64069;46.396;48.102;2022-12-18T10:54:07;9.89;75.73
75489;HTU21D;64069;46.396;48.102;2022-12-18T10:56:40;9.92;75.65
75489;HTU21D;64069;46.396;48.102;2022-12-18T10:59:08;9.94;75.53
75489;HTU21D;64069;46.396;48.102;2022-12-18T11:02:07;9.95;75.47
75489;HTU21D;64069;46.396;48.102;2022-12-18T11:04:50;9.94;75.28
75489;HTU21D;64069;46.396;48.102;2022-12-18T11:07:17;9.89;75.06
75489;HTU21D;64069;46.396;48.102;2022-12-18T11:09:43;9.85;74.92
75489;HTU21D;64069;46.396;48.102;2022-12-18T11:12:19;9.80;74.74
75489;HTU21D;64069;46.396;48.102;2022-12-18T11:14:50;9.79;74.76
75489;HTU21D;64069;46.396;48.102;2022-12-18T11:23:05;9.70;74.80
75489;HTU21D;64069;46.396;48.102;2022-12-18T11:25:33;9.69;74.70
75489;HTU21D;64069;46.396;48.102;2022-12-18T11:30:27;9.63;74.64
75489;HTU21D;64069;46.396;48.102;2022-12-18T11:33:04;9.54;74.80
75489;HTU21D;64069;46.396;48.102;2022-12-18T11:35:40;9.46;74.96
75489;HTU21D;64069;46.396;48.102;2022-12-18T11:40:49;9.32;75.00
75489;HTU21D;64069;46.396;48.102;2022-12-18T11:43:45;9.27;75.01
75489;HTU21D;64069;46.396;48.102;2022-12-18T11:46:24;9.26;74.99
75489;HTU21D;64069;46.396;48.102;2022-12-18T11:48:56;9.25;75.05
75489;HTU21D;64069;46.396;48.102;2022-12-18T11:51:37;9.20;75.14
75489;HTU21D;64069;46.396;48.102;2022-12-18T11:54:14;9.17;75.21
75489;HTU21D;64069;46.396;48.102;2022-12-18T11:56:49;9.15;75.25
75489;HTU21D;64069;46.396;48.102;2022-12-18T12:02:27;9.01;75.58
75489;HTU21D;64069;46.396;48.102;2022-12-18T12:05:04;8.90;75.83
75489;HTU21D;64069;46.396;48.102;2022-12-18T12:07:58;8.78;76.12
75489;HTU21D;64069;46.396;48.102;2022-12-18T12:13:45;8.34;76.84
75489;HTU21D;64069;46.396;48.102;2022-12-18T12:22:27;7.56;78.08
75489;HTU21D;64069;46.396;48.102;2022-12-18T12:28:10;7.00;79.12
75489;HTU21D;64069;46.396;48.102;2022-12-18T12:30:39;6.67;79.82
75489;HTU21D;64069;46.396;48.102;2022-12-18T12:38:37;5.92;80.90
75489;HTU21D;64069;46.396;48.102;2022-12-18T12:41:09;5.71;81.78
75489;HTU21D;64069;46.396;48.102;2022-12-18T12:44:05;5.49;82.20
75489;HTU21D;64069;46.396;48.102;2022-12-18T12:46:38;5.34;82.87
75489;HTU21D;64069;46.396;48.102;2022-12-18T12:49:13;5.24;83.70
75489;HTU21D;64069;46.396;48.102;2022-12-18T12:51:44;5.18;83.61
75489;HTU21D;64069;46.396;48.102;2022-12-18T12:54:19;5.12;84.10
75489;HTU21D;64069;46.396;48.102;2022-12-18T12:59:41;5.08;84.27
75489;HTU21D;64069;46.396;48.102;2022-12-18T13:02:33;5.05;84.27
75489;HTU21D;64069;46.396;48.102;2022-12-18T13:05:14;5.03;84.35
75489;HTU21D;64069;46.396;48.102;2022-12-18T13:07:54;4.98;84.87
75489;HTU21D;64069;46.396;48.102;2022-12-18T13:10:30;4.97;85.04
75489;HTU21D;64069;46.396;48.102;2022-12-18T13:15:38;4.95;85.12
75489;HTU21D;64069;46.396;48.102;2022-12-18T13:20:43;4.96;85.98
75489;HTU21D;64069;46.396;48.102;2022-12-18T13:25:54;4.96;86.21
75489;HTU21D;64069;46.396;48.102;2022-12-18T13:31:07;4.96;86.39
75489;HTU21D;64069;46.396;48.102;2022-12-18T13:38:44;5.01;86.86
75489;HTU21D;64069;46.396;48.102;2022-12-18T13:41:23;5.03;86.90
75489;HTU21D;64069;46.396;48.102;2022-12-18T13:44:52;5.04;87.22
75489;HTU21D;64069;46.396;48.102;2022-12-18T13:47:04;5.06;87.27
75489;HTU21D;64069;46.396;48.102;2022-12-18T13:49:41;5.06;87.47
75489;HTU21D;64069;46.396;48.102;2022-12-18T13:52:35;5.09;87.65
75489;HTU21D;64069;46.396;48.102;2022-12-18T13:55:10;5.09;87.83
75489;HTU21D;64069;46.396;48.102;2022-12-18T13:57:44;5.10;87.77
75489;HTU21D;64069;46.396;48.102;2022-12-18T14:02:49;5.13;88.73
75489;HTU21D;64069;46.396;48.102;2022-12-18T14:05:30;5.17;88.78
75489;HTU21D;64069;46.396;48.102;2022-12-18T14:08:03;5.17;88.84
75489;HTU21D;64069;46.396;48.102;2022-12-18T14:10:33;5.21;89.25
75489;HTU21D;64069;46.396;48.102;2022-12-18T14:13:05;5.23;89.63
75489;HTU21D;64069;46.396;48.102;2022-12-18T14:15:41;5.24;89.91
75489;HTU21D;64069;46.396;48.102;2022-12-18T14:20:47;5.26;90.18
75489;HTU21D;64069;46.396;48.102;2022-12-18T14:23:33;5.27;90.63
75489;HTU21D;64069;46.396;48.102;2022-12-18T14:26:17;5.28;90.58
75489;HTU21D;64069;46.396;48.102;2022-12-18T14:28:45;5.28;90.63
75489;HTU21D;64069;46.396;48.102;2022-12-18T14:31:26;5.27;90.66
75489;HTU21D;64069;46.396;48.102;2022-12-18T14:33:56;5.26;90.72
75489;HTU21D;64069;46.396;48.102;2022-12-18T14:36:25;5.27;90.95
75489;HTU21D;64069;46.396;48.102;2022-12-18T14:38:54;5.27;91.01
75489;HTU21D;64069;46.396;48.102;2022-12-18T14:41:20;5.28;90.95
75489;HTU21D;64069;46.396;48.102;2022-12-18T14:43:49;5.26;90.94
75489;HTU21D;64069;46.396;48.102;2022-12-18T14:46:35;5.26;91.04
75489;HTU21D;64069;46.396;48.102;2022-12-18T14:49:22;5.27;91.02
75489;HTU21D;64069;46.396;48.102;2022-12-18T14:51:56;5.30;91.04
75489;HTU21D;64069;46.396;48.102;2022-12-18T14:54:24;5.31;91.02
75489;HTU21D;64069;46.396;48.102;2022-12-18T14:57:05;5.32;91.11
75489;HTU21D;64069;46.396;48.102;2022-12-18T14:59:32;5.33;91.04
75489;HTU21D;64069;46.396;48.102;2022-12-18T15:02:17;5.33;90.86
75489;HTU21D;64069;46.396;48.102;2022-12-18T15:04:44;5.34;90.97
75489;HTU21D;64069;46.396;48.102;2022-12-18T15:07:20;5.36;91.21
75489;HTU21D;64069;46.396;48.102;2022-12-18T15:10:24;5.36;91.39
75489;HTU21D;64069;46.396;48.102;2022-12-18T15:23:20;5.45;91.53
75489;HTU21D;64069;46.396;48.102;2022-12-18T15:28:39;5.46;91.58
75489;HTU21D;64069;46.396;48.102;2022-12-18T15:33:37;5.45;91.79
75489;HTU21D;64069;46.396;48.102;2022-12-18T15:36:08;5.45;92.02
75489;HTU21D;64069;46.396;48.102;2022-12-18T15:38:38;5.43;92.26
75489;HTU21D;64069;46.396;48.102;2022-12-18T15:41:04;5.45;92.32
75489;HTU21D;64069;46.396;48.102;2022-12-18T15:43:30;5.43;92.46
75489;HTU21D;64069;46.396;48.102;2022-12-18T15:46:10;5.45;92.63
75489;HTU21D;64069;46.396;48.102;2022-12-18T15:48:45;5.43;92.73
75489;HTU21D;64069;46.396;48.102;2022-12-18T15:51:20;5.43;92.91
75489;HTU21D;64069;46.396;48.102;2022-12-18T15:53:48;5.42;92.95
75489;HTU21D;64069;46.396;48.102;2022-12-18T15:56:16;5.45;92.89
75489;HTU21D;64069;46.396;48.102;2022-12-18T15:59:01;5.48;93.08
75489;HTU21D;64069;46.396;48.102;2022-12-18T16:01:30;5.49;93.12
75489;HTU21D;64069;46.396;48.102;2022-12-18T16:03:57;5.50;93.23
75489;HTU21D;64069;46.396;48.102;2022-12-18T16:06:23;5.52;93.37
75489;HTU21D;64069;46.396;48.102;2022-12-18T16:08:49;5.54;93.32
75489;HTU21D;64069;46.396;48.102;2022-12-18T16:11:23;5.59;93.39
75489;HTU21D;64069;46.396;48.102;2022-12-18T16:14:28;5.61;93.29
75489;HTU21D;64069;46.396;48.102;2022-12-18T16:16:57;5.62;93.30
75489;HTU21D;64069;46.396;48.102;2022-12-18T16:19:24;5.63;93.30
75489;HTU21D;64069;46.396;48.102;2022-12-18T16:21:52;5.64;93.41
75489;HTU21D;64069;46.396;48.102;2022-12-18T16:24:23;5.64;93.30
75489;HTU21D;64069;46.396;48.102;2022-12-18T16:26:50;5.63;93.12
75489;HTU21D;64069;46.396;48.102;2022-12-18T16:29:17;5.64;93.14
75489;HTU21D;64069;46.396;48.102;2022-12-18T16:31:44;5.63;93.16
75489;HTU21D;64069;46.396;48.102;2022-12-18T16:36:54;5.64;93.27
75489;HTU21D;64069;46.396;48.102;2022-12-18T16:39:20;5.64;93.22
75489;HTU21D;64069;46.396;48.102;2022-12-18T16:41:47;5.65;93.33
75489;HTU21D;64069;46.396;48.102;2022-12-18T16:44:13;5.65;93.31
75489;HTU21D;64069;46.396;48.102;2022-12-18T16:46:40;5.65;93.30
75489;HTU21D;64069;46.396;48.102;2022-12-18T16:49:12;5.65;93.31
75489;HTU21D;64069;46.396;48.102;2022-12-18T16:51:38;5.66;93.32
75489;HTU21D;64069;46.396;48.102;2022-12-18T16:54:05;5.65;93.28
75489;HTU21D;64069;46.396;48.102;2022-12-18T16:56:31;5.65;93.37
75489;HTU21D;64069;46.396;48.102;2022-12-18T16:58:59;5.66;93.31
75489;HTU21D;64069;46.396;48.102;2022-12-18T17:01:28;5.64;93.27
75489;HTU21D;64069;46.396;48.102;2022-12-18T17:04:05;5.62;93.24
75489;HTU21D;64069;46.396;48.102;2022-12-18T17:06:33;5.61;93.19
75489;HTU21D;64069;46.396;48.102;2022-12-18T17:09:09;5.60;93.23
75489;HTU21D;64069;46.396;48.102;2022-12-18T17:11:39;5.56;93.14
75489;HTU21D;64069;46.396;48.102;2022-12-18T17:14:17;5.56;93.14
75489;HTU21D;64069;46.396;48.102;2022-12-18T17:16:45;5.55;93.18
75489;HTU21D;64069;46.396;48.102;2022-12-18T17:19:11;5.55;93.18
75489;HTU21D;64069;46.396;48.102;2022-12-18T17:21:38;5.54;93.19
75489;HTU21D;64069;46.396;48.102;2022-12-18T17:24:04;5.56;93.21
75489;HTU21D;64069;46.396;48.102;2022-12-18T17:26:30;5.52;93.18
75489;HTU21D;64069;46.396;48.102;2022-12-18T17:29:00;5.52;93.21
75489;HTU21D;64069;46.396;48.102;2022-12-18T17:31:27;5.51;93.22
75489;HTU21D;64069;46.396;48.102;2022-12-18T17:33:57;5.49;93.22
75489;HTU21D;64069;46.396;48.102;2022-12-18T17:36:24;5.46;93.18